sensor_id;sensor_type;location;lat;lon;timestamp;P1;durP1;ratioP1;P2;durP2;ratioP2
12840;SDS011;6487;48.626;12.486;2023-04-25T00:00:04;2.73;;;2.27;;
12840;SDS011;6487;48.626;12.486;2023-04-25T00:02:35;3.33;;;2.30;;
12840;SDS011;6487;48.626;12.486;2023-04-25T00:05:05;3.10;;;2.33;;
12840;SDS011;6487;48.626;12.486;2023-04-25T00:07:42;4.03;;;2.67;;
12840;SDS011;6487;48.626;12.486;2023-04-25T00:10:11;3.47;;;2.67;;
12840;SDS011;6487;48.626;12.486;2023-04-25T00:12:39;3.37;;;2.57;;
12840;SDS011;6487;48.626;12.486;2023-04-25T00:15:08;2.47;;;2.20;;
12840;SDS011;6487;48.626;12.486;2023-04-25T00:17:39;2.67;;;2.10;;
12840;SDS011;6487;48.626;12.486;2023-04-25T00:20:11;4.03;;;1.90;;
12840;SDS011;6487;48.626;12.486;2023-04-25T00:22:40;2.10;;;1.83;;
12840;SDS011;6487;48.626;12.486;2023-04-25T00:25:08;2.90;;;1.83;;
12840;SDS011;6487;48.626;12.486;2023-04-25T00:27:36;1.97;;;1.83;;
12840;SDS011;6487;48.626;12.486;2023-04-25T00:30:05;3.10;;;2.23;;
12840;SDS011;6487;48.626;12.486;2023-04-25T00:32:35;2.30;;;2.00;;
12840;SDS011;6487;48.626;12.486;2023-04-25T00:35:04;1.77;;;1.67;;
12840;SDS011;6487;48.626;12.486;2023-04-25T00:37:34;2.13;;;1.93;;
12840;SDS011;6487;48.626;12.486;2023-04-25T00:40:06;2.17;;;1.97;;
12840;SDS011;6487;48.626;12.486;2023-04-25T00:42:35;2.10;;;1.90;;
12840;SDS011;6487;48.626;12.486;2023-04-25T00:45:07;2.87;;;2.10;;
12840;SDS011;6487;48.626;12.486;2023-04-25T00:47:41;4.00;;;2.30;;
12840;SDS011;6487;48.626;12.486;2023-04-25T00:50:11;2.20;;;2.00;;
12840;SDS011;6487;48.626;12.486;2023-04-25T00:52:44;4.17;;;2.37;;
12840;SDS011;6487;48.626;12.486;2023-04-25T00:55:15;2.10;;;1.90;;
12840;SDS011;6487;48.626;12.486;2023-04-25T00:57:43;4.03;;;1.90;;
12840;SDS011;6487;48.626;12.486;2023-04-25T01:00:13;3.27;;;2.30;;
12840;SDS011;6487;48.626;12.486;2023-04-25T01:02:42;3.50;;;2.30;;
12840;SDS011;6487;48.626;12.486;2023-04-25T01:05:12;2.40;;;1.90;;
12840;SDS011;6487;48.626;12.486;2023-04-25T01:07:40;3.13;;;2.10;;
12840;SDS011;6487;48.626;12.486;2023-04-25T01:10:10;2.33;;;2.13;;
12840;SDS011;6487;48.626;12.486;2023-04-25T01:12:39;2.23;;;1.87;;
12840;SDS011;6487;48.626;12.486;2023-04-25T01:15:07;3.53;;;2.10;;
12840;SDS011;6487;48.626;12.486;2023-04-25T01:17:36;2.50;;;1.87;;
12840;SDS011;6487;48.626;12.486;2023-04-25T01:20:06;2.40;;;2.10;;
12840;SDS011;6487;48.626;12.486;2023-04-25T01:22:38;3.40;;;2.10;;
12840;SDS011;6487;48.626;12.486;2023-04-25T01:25:08;2.43;;;1.97;;
12840;SDS011;6487;48.626;12.486;2023-04-25T01:27:37;2.30;;;2.00;;
12840;SDS011;6487;48.626;12.486;2023-04-25T01:30:06;2.10;;;1.90;;
12840;SDS011;6487;48.626;12.486;2023-04-25T01:32:35;1.90;;;1.80;;
12840;SDS011;6487;48.626;12.486;2023-04-25T01:35:08;2.90;;;2.10;;
12840;SDS011;6487;48.626;12.486;2023-04-25T01:37:41;2.90;;;2.57;;
12840;SDS011;6487;48.626;12.486;2023-04-25T01:40:10;2.07;;;1.97;;
12840;SDS011;6487;48.626;12.486;2023-04-25T01:42:41;2.20;;;2.00;;
12840;SDS011;6487;48.626;12.486;2023-04-25T01:45:11;2.97;;;1.87;;
12840;SDS011;6487;48.626;12.486;2023-04-25T01:47:40;2.53;;;1.77;;
12840;SDS011;6487;48.626;12.486;2023-04-25T01:50:10;2.40;;;2.20;;
12840;SDS011;6487;48.626;12.486;2023-04-25T01:52:43;2.53;;;2.17;;
12840;SDS011;6487;48.626;12.486;2023-04-25T01:55:11;2.30;;;2.10;;
12840;SDS011;6487;48.626;12.486;2023-04-25T01:57:40;2.63;;;1.97;;
12840;SDS011;6487;48.626;12.486;2023-04-25T02:00:08;3.10;;;1.80;;
12840;SDS011;6487;48.626;12.486;2023-04-25T02:02:38;2.20;;;1.70;;
12840;SDS011;6487;48.626;12.486;2023-04-25T02:05:07;4.77;;;1.90;;
12840;SDS011;6487;48.626;12.486;2023-04-25T02:07:36;2.37;;;1.83;;
12840;SDS011;6487;48.626;12.486;2023-04-25T02:10:06;1.77;;;1.67;;
12840;SDS011;6487;48.626;12.486;2023-04-25T02:12:35;2.27;;;1.80;;
12840;SDS011;6487;48.626;12.486;2023-04-25T02:15:07;3.73;;;2.37;;
12840;SDS011;6487;48.626;12.486;2023-04-25T02:17:36;2.63;;;1.97;;
12840;SDS011;6487;48.626;12.486;2023-04-25T02:20:05;2.33;;;2.13;;
12840;SDS011;6487;48.626;12.486;2023-04-25T02:22:34;2.53;;;2.00;;
12840;SDS011;6487;48.626;12.486;2023-04-25T02:25:03;4.57;;;2.03;;
12840;SDS011;6487;48.626;12.486;2023-04-25T02:27:34;2.07;;;1.97;;
12840;SDS011;6487;48.626;12.486;2023-04-25T02:30:03;2.50;;;2.10;;
12840;SDS011;6487;48.626;12.486;2023-04-25T02:32:32;1.83;;;1.70;;
12840;SDS011;6487;48.626;12.486;2023-04-25T02:35:01;3.90;;;2.07;;
12840;SDS011;6487;48.626;12.486;2023-04-25T02:37:30;3.23;;;2.00;;
12840;SDS011;6487;48.626;12.486;2023-04-25T02:39:59;2.40;;;1.93;;
12840;SDS011;6487;48.626;12.486;2023-04-25T02:42:29;1.93;;;1.73;;
12840;SDS011;6487;48.626;12.486;2023-04-25T02:44:58;2.73;;;2.00;;
12840;SDS011;6487;48.626;12.486;2023-04-25T02:47:26;3.27;;;2.20;;
12840;SDS011;6487;48.626;12.486;2023-04-25T02:49:55;2.20;;;1.80;;
12840;SDS011;6487;48.626;12.486;2023-04-25T02:52:23;3.33;;;2.27;;
12840;SDS011;6487;48.626;12.486;2023-04-25T02:54:52;2.73;;;2.10;;
12840;SDS011;6487;48.626;12.486;2023-04-25T02:57:20;2.33;;;1.90;;
12840;SDS011;6487;48.626;12.486;2023-04-25T02:59:50;2.20;;;2.00;;
12840;SDS011;6487;48.626;12.486;2023-04-25T03:02:18;2.20;;;2.00;;
12840;SDS011;6487;48.626;12.486;2023-04-25T03:04:46;1.70;;;1.60;;
12840;SDS011;6487;48.626;12.486;2023-04-25T03:07:15;2.50;;;2.30;;
12840;SDS011;6487;48.626;12.486;2023-04-25T03:09:43;2.60;;;2.07;;
12840;SDS011;6487;48.626;12.486;2023-04-25T03:12:12;3.07;;;2.20;;
12840;SDS011;6487;48.626;12.486;2023-04-25T03:14:40;2.40;;;1.97;;
12840;SDS011;6487;48.626;12.486;2023-04-25T03:17:13;3.10;;;2.13;;
12840;SDS011;6487;48.626;12.486;2023-04-25T03:19:44;4.00;;;2.10;;
12840;SDS011;6487;48.626;12.486;2023-04-25T03:22:12;1.77;;;1.57;;
12840;SDS011;6487;48.626;12.486;2023-04-25T03:24:41;2.10;;;1.93;;
12840;SDS011;6487;48.626;12.486;2023-04-25T03:27:09;2.03;;;1.80;;
12840;SDS011;6487;48.626;12.486;2023-04-25T03:29:37;2.30;;;1.87;;
12840;SDS011;6487;48.626;12.486;2023-04-25T03:32:06;2.47;;;2.27;;
12840;SDS011;6487;48.626;12.486;2023-04-25T03:34:36;2.17;;;1.97;;
12840;SDS011;6487;48.626;12.486;2023-04-25T03:37:04;2.57;;;1.83;;
12840;SDS011;6487;48.626;12.486;2023-04-25T03:39:33;1.87;;;1.73;;
12840;SDS011;6487;48.626;12.486;2023-04-25T03:42:01;1.97;;;1.80;;
12840;SDS011;6487;48.626;12.486;2023-04-25T03:44:30;2.47;;;1.90;;
12840;SDS011;6487;48.626;12.486;2023-04-25T03:46:58;2.27;;;1.80;;
12840;SDS011;6487;48.626;12.486;2023-04-25T03:49:26;4.13;;;1.77;;
12840;SDS011;6487;48.626;12.486;2023-04-25T03:51:56;3.73;;;1.90;;
12840;SDS011;6487;48.626;12.486;2023-04-25T03:54:24;2.37;;;1.80;;
12840;SDS011;6487;48.626;12.486;2023-04-25T03:56:53;2.73;;;2.17;;
12840;SDS011;6487;48.626;12.486;2023-04-25T03:59:21;2.20;;;2.00;;
12840;SDS011;6487;48.626;12.486;2023-04-25T04:01:49;3.03;;;2.30;;
12840;SDS011;6487;48.626;12.486;2023-04-25T04:04:18;2.23;;;2.10;;
12840;SDS011;6487;48.626;12.486;2023-04-25T04:06:46;4.00;;;2.37;;
12840;SDS011;6487;48.626;12.486;2023-04-25T04:09:16;2.30;;;2.10;;
12840;SDS011;6487;48.626;12.486;2023-04-25T04:11:45;2.43;;;2.20;;
12840;SDS011;6487;48.626;12.486;2023-04-25T04:14:17;2.37;;;2.17;;
12840;SDS011;6487;48.626;12.486;2023-04-25T04:16:45;2.83;;;2.43;;
12840;SDS011;6487;48.626;12.486;2023-04-25T04:19:13;3.43;;;2.10;;
12840;SDS011;6487;48.626;12.486;2023-04-25T04:21:42;2.63;;;2.10;;
12840;SDS011;6487;48.626;12.486;2023-04-25T04:24:13;2.67;;;2.30;;
12840;SDS011;6487;48.626;12.486;2023-04-25T04:26:44;2.40;;;2.20;;
12840;SDS011;6487;48.626;12.486;2023-04-25T04:29:12;2.67;;;2.23;;
12840;SDS011;6487;48.626;12.486;2023-04-25T04:31:47;3.60;;;2.67;;
12840;SDS011;6487;48.626;12.486;2023-04-25T04:34:17;4.10;;;3.10;;
12840;SDS011;6487;48.626;12.486;2023-04-25T04:36:46;5.43;;;2.97;;
12840;SDS011;6487;48.626;12.486;2023-04-25T04:39:15;3.00;;;2.67;;
12840;SDS011;6487;48.626;12.486;2023-04-25T04:41:45;3.33;;;2.60;;
12840;SDS011;6487;48.626;12.486;2023-04-25T04:44:13;2.70;;;2.20;;
12840;SDS011;6487;48.626;12.486;2023-04-25T04:46:42;3.47;;;2.20;;
12840;SDS011;6487;48.626;12.486;2023-04-25T04:49:11;3.07;;;2.10;;
12840;SDS011;6487;48.626;12.486;2023-04-25T04:51:40;2.93;;;2.23;;
12840;SDS011;6487;48.626;12.486;2023-04-25T04:54:10;5.83;;;2.80;;
12840;SDS011;6487;48.626;12.486;2023-04-25T04:56:42;2.40;;;2.20;;
12840;SDS011;6487;48.626;12.486;2023-04-25T04:59:14;3.03;;;2.60;;
12840;SDS011;6487;48.626;12.486;2023-04-25T05:01:43;3.30;;;2.67;;
12840;SDS011;6487;48.626;12.486;2023-04-25T05:04:12;3.60;;;2.07;;
12840;SDS011;6487;48.626;12.486;2023-04-25T05:06:40;2.80;;;2.50;;
12840;SDS011;6487;48.626;12.486;2023-04-25T05:09:13;3.03;;;2.40;;
12840;SDS011;6487;48.626;12.486;2023-04-25T05:11:42;2.83;;;2.60;;
12840;SDS011;6487;48.626;12.486;2023-04-25T05:14:12;3.07;;;2.77;;
12840;SDS011;6487;48.626;12.486;2023-04-25T05:16:40;4.80;;;2.80;;
12840;SDS011;6487;48.626;12.486;2023-04-25T05:19:10;3.70;;;2.40;;
12840;SDS011;6487;48.626;12.486;2023-04-25T05:21:38;3.67;;;2.43;;
12840;SDS011;6487;48.626;12.486;2023-04-25T05:24:06;3.57;;;3.10;;
12840;SDS011;6487;48.626;12.486;2023-04-25T05:26:38;3.20;;;2.70;;
12840;SDS011;6487;48.626;12.486;2023-04-25T05:29:07;3.90;;;2.60;;
12840;SDS011;6487;48.626;12.486;2023-04-25T05:31:36;3.30;;;3.00;;
12840;SDS011;6487;48.626;12.486;2023-04-25T05:34:05;2.60;;;2.40;;
12840;SDS011;6487;48.626;12.486;2023-04-25T05:36:34;3.83;;;3.10;;
12840;SDS011;6487;48.626;12.486;2023-04-25T05:39:02;2.97;;;2.67;;
12840;SDS011;6487;48.626;12.486;2023-04-25T05:41:32;3.83;;;3.50;;
12840;SDS011;6487;48.626;12.486;2023-04-25T05:44:00;4.80;;;3.10;;
12840;SDS011;6487;48.626;12.486;2023-04-25T05:46:28;3.67;;;3.20;;
12840;SDS011;6487;48.626;12.486;2023-04-25T05:48:58;4.30;;;3.87;;
12840;SDS011;6487;48.626;12.486;2023-04-25T05:51:26;9.30;;;7.53;;
12840;SDS011;6487;48.626;12.486;2023-04-25T05:53:55;6.53;;;5.83;;
12840;SDS011;6487;48.626;12.486;2023-04-25T05:56:23;5.33;;;4.83;;
12840;SDS011;6487;48.626;12.486;2023-04-25T05:58:52;6.27;;;5.43;;
12840;SDS011;6487;48.626;12.486;2023-04-25T06:01:20;4.60;;;3.90;;
12840;SDS011;6487;48.626;12.486;2023-04-25T06:03:49;4.20;;;3.80;;
12840;SDS011;6487;48.626;12.486;2023-04-25T06:06:20;4.27;;;3.83;;
12840;SDS011;6487;48.626;12.486;2023-04-25T06:08:51;5.07;;;3.40;;
12840;SDS011;6487;48.626;12.486;2023-04-25T06:11:20;6.03;;;3.70;;
12840;SDS011;6487;48.626;12.486;2023-04-25T06:13:48;3.70;;;2.80;;
12840;SDS011;6487;48.626;12.486;2023-04-25T06:16:17;6.93;;;3.77;;
12840;SDS011;6487;48.626;12.486;2023-04-25T06:18:46;4.27;;;3.13;;
12840;SDS011;6487;48.626;12.486;2023-04-25T06:21:14;4.87;;;2.80;;
12840;SDS011;6487;48.626;12.486;2023-04-25T06:23:44;5.93;;;3.10;;
12840;SDS011;6487;48.626;12.486;2023-04-25T06:26:12;5.30;;;3.13;;
12840;SDS011;6487;48.626;12.486;2023-04-25T06:28:41;4.77;;;3.20;;
12840;SDS011;6487;48.626;12.486;2023-04-25T06:31:09;4.40;;;2.63;;
12840;SDS011;6487;48.626;12.486;2023-04-25T06:33:38;5.13;;;3.13;;
12840;SDS011;6487;48.626;12.486;2023-04-25T06:36:07;3.50;;;3.20;;
12840;SDS011;6487;48.626;12.486;2023-04-25T06:38:35;4.13;;;2.80;;
12840;SDS011;6487;48.626;12.486;2023-04-25T06:41:05;4.07;;;2.97;;
12840;SDS011;6487;48.626;12.486;2023-04-25T06:43:34;3.30;;;2.57;;
12840;SDS011;6487;48.626;12.486;2023-04-25T06:46:02;3.57;;;3.00;;
12840;SDS011;6487;48.626;12.486;2023-04-25T06:48:30;3.57;;;2.83;;
12840;SDS011;6487;48.626;12.486;2023-04-25T06:50:59;4.23;;;2.80;;
12840;SDS011;6487;48.626;12.486;2023-04-25T06:53:27;3.80;;;3.13;;
12840;SDS011;6487;48.626;12.486;2023-04-25T06:55:56;3.73;;;3.30;;
12840;SDS011;6487;48.626;12.486;2023-04-25T06:58:25;5.30;;;3.40;;
12840;SDS011;6487;48.626;12.486;2023-04-25T07:00:54;4.47;;;3.63;;
12840;SDS011;6487;48.626;12.486;2023-04-25T07:03:22;6.77;;;3.67;;
12840;SDS011;6487;48.626;12.486;2023-04-25T07:05:51;6.03;;;4.00;;
12840;SDS011;6487;48.626;12.486;2023-04-25T07:08:19;5.57;;;3.77;;
12840;SDS011;6487;48.626;12.486;2023-04-25T07:10:47;4.83;;;2.80;;
12840;SDS011;6487;48.626;12.486;2023-04-25T07:13:16;4.33;;;3.17;;
12840;SDS011;6487;48.626;12.486;2023-04-25T07:15:46;5.77;;;3.60;;
12840;SDS011;6487;48.626;12.486;2023-04-25T07:18:14;3.63;;;3.10;;
12840;SDS011;6487;48.626;12.486;2023-04-25T07:20:43;4.50;;;3.00;;
12840;SDS011;6487;48.626;12.486;2023-04-25T07:23:11;3.83;;;2.70;;
12840;SDS011;6487;48.626;12.486;2023-04-25T07:25:39;4.90;;;3.00;;
12840;SDS011;6487;48.626;12.486;2023-04-25T07:28:08;4.33;;;2.90;;
12840;SDS011;6487;48.626;12.486;2023-04-25T07:30:36;3.37;;;3.07;;
12840;SDS011;6487;48.626;12.486;2023-04-25T07:33:06;3.93;;;3.10;;
12840;SDS011;6487;48.626;12.486;2023-04-25T07:35:34;2.97;;;2.17;;
12840;SDS011;6487;48.626;12.486;2023-04-25T07:38:05;2.60;;;2.40;;
12840;SDS011;6487;48.626;12.486;2023-04-25T07:40:34;3.83;;;2.07;;
12840;SDS011;6487;48.626;12.486;2023-04-25T07:43:02;3.37;;;2.20;;
12840;SDS011;6487;48.626;12.486;2023-04-25T07:45:31;2.77;;;2.20;;
12840;SDS011;6487;48.626;12.486;2023-04-25T07:47:59;4.33;;;1.67;;
12840;SDS011;6487;48.626;12.486;2023-04-25T07:50:29;1.87;;;1.40;;
12840;SDS011;6487;48.626;12.486;2023-04-25T07:52:57;3.30;;;1.40;;
12840;SDS011;6487;48.626;12.486;2023-04-25T07:55:26;2.43;;;1.60;;
12840;SDS011;6487;48.626;12.486;2023-04-25T07:57:54;2.83;;;1.50;;
12840;SDS011;6487;48.626;12.486;2023-04-25T08:00:22;1.50;;;1.40;;
12840;SDS011;6487;48.626;12.486;2023-04-25T08:02:51;3.13;;;1.40;;
12840;SDS011;6487;48.626;12.486;2023-04-25T08:05:19;1.30;;;1.17;;
12840;SDS011;6487;48.626;12.486;2023-04-25T08:07:50;2.93;;;1.50;;
12840;SDS011;6487;48.626;12.486;2023-04-25T08:10:18;1.90;;;1.13;;
12840;SDS011;6487;48.626;12.486;2023-04-25T08:12:46;4.63;;;1.67;;
12840;SDS011;6487;48.626;12.486;2023-04-25T08:15:15;2.07;;;1.70;;
12840;SDS011;6487;48.626;12.486;2023-04-25T08:17:43;1.20;;;1.10;;
12840;SDS011;6487;48.626;12.486;2023-04-25T08:20:12;2.57;;;1.40;;
12840;SDS011;6487;48.626;12.486;2023-04-25T08:22:40;1.77;;;1.00;;
12840;SDS011;6487;48.626;12.486;2023-04-25T08:25:10;5.43;;;1.73;;
12840;SDS011;6487;48.626;12.486;2023-04-25T08:27:38;1.47;;;1.30;;
12840;SDS011;6487;48.626;12.486;2023-04-25T08:30:09;2.47;;;1.57;;
12840;SDS011;6487;48.626;12.486;2023-04-25T08:32:38;1.53;;;1.13;;
12840;SDS011;6487;48.626;12.486;2023-04-25T08:35:07;2.67;;;1.87;;
12840;SDS011;6487;48.626;12.486;2023-04-25T08:37:36;2.07;;;1.40;;
12840;SDS011;6487;48.626;12.486;2023-04-25T08:40:05;2.00;;;1.43;;
12840;SDS011;6487;48.626;12.486;2023-04-25T08:42:43;3.63;;;1.90;;
12840;SDS011;6487;48.626;12.486;2023-04-25T08:45:11;3.43;;;2.37;;
12840;SDS011;6487;48.626;12.486;2023-04-25T08:47:40;2.60;;;2.17;;
12840;SDS011;6487;48.626;12.486;2023-04-25T08:50:11;3.17;;;2.30;;
12840;SDS011;6487;48.626;12.486;2023-04-25T08:52:45;2.77;;;2.20;;
12840;SDS011;6487;48.626;12.486;2023-04-25T08:55:17;2.73;;;2.10;;
12840;SDS011;6487;48.626;12.486;2023-04-25T08:57:46;2.50;;;1.70;;
12840;SDS011;6487;48.626;12.486;2023-04-25T09:00:15;2.70;;;1.90;;
12840;SDS011;6487;48.626;12.486;2023-04-25T09:02:46;2.53;;;2.23;;
12840;SDS011;6487;48.626;12.486;2023-04-25T09:05:15;2.17;;;1.97;;
12840;SDS011;6487;48.626;12.486;2023-04-25T09:07:47;2.27;;;1.83;;
12840;SDS011;6487;48.626;12.486;2023-04-25T09:10:17;4.57;;;1.67;;
12840;SDS011;6487;48.626;12.486;2023-04-25T09:12:56;2.80;;;1.50;;
12840;SDS011;6487;48.626;12.486;2023-04-25T09:15:31;2.93;;;1.20;;
12840;SDS011;6487;48.626;12.486;2023-04-25T09:18:00;4.73;;;1.50;;
12840;SDS011;6487;48.626;12.486;2023-04-25T09:20:28;1.83;;;1.50;;
12840;SDS011;6487;48.626;12.486;2023-04-25T09:23:05;5.50;;;1.90;;
12840;SDS011;6487;48.626;12.486;2023-04-25T09:25:35;3.10;;;1.80;;
12840;SDS011;6487;48.626;12.486;2023-04-25T09:28:05;2.07;;;1.87;;
12840;SDS011;6487;48.626;12.486;2023-04-25T09:30:35;3.20;;;2.20;;
12840;SDS011;6487;48.626;12.486;2023-04-25T09:33:04;2.77;;;1.70;;
12840;SDS011;6487;48.626;12.486;2023-04-25T09:35:37;2.53;;;2.20;;
12840;SDS011;6487;48.626;12.486;2023-04-25T09:38:08;2.20;;;1.90;;
12840;SDS011;6487;48.626;12.486;2023-04-25T09:40:42;3.30;;;2.17;;
12840;SDS011;6487;48.626;12.486;2023-04-25T09:43:18;3.20;;;2.20;;
12840;SDS011;6487;48.626;12.486;2023-04-25T09:45:48;2.17;;;1.90;;
12840;SDS011;6487;48.626;12.486;2023-04-25T09:48:18;2.00;;;1.80;;
12840;SDS011;6487;48.626;12.486;2023-04-25T09:50:51;1.80;;;1.70;;
12840;SDS011;6487;48.626;12.486;2023-04-25T09:53:33;1.87;;;1.23;;
12840;SDS011;6487;48.626;12.486;2023-04-25T09:56:05;3.07;;;1.30;;
12840;SDS011;6487;48.626;12.486;2023-04-25T09:58:34;1.30;;;1.20;;
12840;SDS011;6487;48.626;12.486;2023-04-25T10:01:05;1.10;;;1.00;;
12840;SDS011;6487;48.626;12.486;2023-04-25T10:03:35;1.43;;;1.17;;
12840;SDS011;6487;48.626;12.486;2023-04-25T10:06:07;1.50;;;1.40;;
12840;SDS011;6487;48.626;12.486;2023-04-25T10:08:40;1.60;;;1.30;;
12840;SDS011;6487;48.626;12.486;2023-04-25T10:11:10;1.60;;;1.50;;
12840;SDS011;6487;48.626;12.486;2023-04-25T10:13:42;2.53;;;1.70;;
12840;SDS011;6487;48.626;12.486;2023-04-25T10:16:11;4.57;;;2.00;;
12840;SDS011;6487;48.626;12.486;2023-04-25T10:18:42;2.43;;;2.00;;
12840;SDS011;6487;48.626;12.486;2023-04-25T10:21:10;2.10;;;1.93;;
12840;SDS011;6487;48.626;12.486;2023-04-25T10:23:40;2.60;;;2.03;;
12840;SDS011;6487;48.626;12.486;2023-04-25T10:26:11;2.27;;;1.90;;
12840;SDS011;6487;48.626;12.486;2023-04-25T10:28:56;2.30;;;1.37;;
12840;SDS011;6487;48.626;12.486;2023-04-25T10:31:28;1.90;;;1.67;;
12840;SDS011;6487;48.626;12.486;2023-04-25T10:34:02;1.70;;;1.60;;
12840;SDS011;6487;48.626;12.486;2023-04-25T10:36:32;2.37;;;1.60;;
12840;SDS011;6487;48.626;12.486;2023-04-25T10:39:03;1.60;;;1.50;;
12840;SDS011;6487;48.626;12.486;2023-04-25T10:41:46;2.47;;;1.90;;
12840;SDS011;6487;48.626;12.486;2023-04-25T10:44:16;2.83;;;2.10;;
12840;SDS011;6487;48.626;12.486;2023-04-25T10:46:44;2.30;;;2.10;;
12840;SDS011;6487;48.626;12.486;2023-04-25T10:49:28;2.67;;;2.40;;
12840;SDS011;6487;48.626;12.486;2023-04-25T10:52:11;2.97;;;2.47;;
12840;SDS011;6487;48.626;12.486;2023-04-25T10:54:52;2.80;;;2.30;;
12840;SDS011;6487;48.626;12.486;2023-04-25T10:57:36;1.97;;;1.87;;
12840;SDS011;6487;48.626;12.486;2023-04-25T11:00:13;4.33;;;2.20;;
12840;SDS011;6487;48.626;12.486;2023-04-25T11:02:55;2.10;;;1.90;;
12840;SDS011;6487;48.626;12.486;2023-04-25T11:05:28;1.50;;;1.40;;
12840;SDS011;6487;48.626;12.486;2023-04-25T11:08:24;2.00;;;1.80;;
12840;SDS011;6487;48.626;12.486;2023-04-25T11:11:11;4.63;;;1.90;;
12840;SDS011;6487;48.626;12.486;2023-04-25T11:13:41;3.07;;;1.93;;
12840;SDS011;6487;48.626;12.486;2023-04-25T11:16:10;2.83;;;2.30;;
12840;SDS011;6487;48.626;12.486;2023-04-25T11:18:49;2.50;;;2.30;;
12840;SDS011;6487;48.626;12.486;2023-04-25T11:21:17;3.00;;;2.73;;
12840;SDS011;6487;48.626;12.486;2023-04-25T11:23:45;5.40;;;3.10;;
12840;SDS011;6487;48.626;12.486;2023-04-25T11:26:14;2.70;;;2.50;;
12840;SDS011;6487;48.626;12.486;2023-04-25T11:28:45;3.83;;;1.77;;
12840;SDS011;6487;48.626;12.486;2023-04-25T11:31:14;2.20;;;1.87;;
12840;SDS011;6487;48.626;12.486;2023-04-25T11:33:42;2.10;;;1.77;;
12840;SDS011;6487;48.626;12.486;2023-04-25T11:36:11;3.17;;;2.87;;
12840;SDS011;6487;48.626;12.486;2023-04-25T11:38:40;12.50;;;9.23;;
12840;SDS011;6487;48.626;12.486;2023-04-25T11:41:08;14.73;;;9.63;;
12840;SDS011;6487;48.626;12.486;2023-04-25T11:43:37;17.73;;;9.87;;
12840;SDS011;6487;48.626;12.486;2023-04-25T11:46:10;13.57;;;8.70;;
12840;SDS011;6487;48.626;12.486;2023-04-25T11:48:38;3.87;;;2.67;;
12840;SDS011;6487;48.626;12.486;2023-04-25T11:51:08;4.40;;;3.73;;
12840;SDS011;6487;48.626;12.486;2023-04-25T11:53:36;11.10;;;7.27;;
12840;SDS011;6487;48.626;12.486;2023-04-25T11:56:09;16.43;;;13.20;;
12840;SDS011;6487;48.626;12.486;2023-04-25T12:01:35;5.20;;;4.70;;
12840;SDS011;6487;48.626;12.486;2023-04-25T12:04:11;2.60;;;2.40;;
12840;SDS011;6487;48.626;12.486;2023-04-25T12:06:43;1.77;;;1.67;;
12840;SDS011;6487;48.626;12.486;2023-04-25T12:09:15;1.80;;;1.70;;
12840;SDS011;6487;48.626;12.486;2023-04-25T12:11:48;1.70;;;1.60;;
12840;SDS011;6487;48.626;12.486;2023-04-25T12:14:23;2.07;;;1.83;;
12840;SDS011;6487;48.626;12.486;2023-04-25T12:16:56;2.10;;;1.53;;
12840;SDS011;6487;48.626;12.486;2023-04-25T12:19:26;1.50;;;1.40;;
12840;SDS011;6487;48.626;12.486;2023-04-25T12:22:00;2.07;;;1.67;;
12840;SDS011;6487;48.626;12.486;2023-04-25T12:24:32;1.60;;;1.50;;
12840;SDS011;6487;48.626;12.486;2023-04-25T12:27:05;1.60;;;1.50;;
12840;SDS011;6487;48.626;12.486;2023-04-25T12:29:35;1.40;;;1.30;;
12840;SDS011;6487;48.626;12.486;2023-04-25T12:32:16;1.40;;;1.30;;
12840;SDS011;6487;48.626;12.486;2023-04-25T12:34:44;1.50;;;1.40;;
12840;SDS011;6487;48.626;12.486;2023-04-25T12:37:13;1.40;;;1.30;;
12840;SDS011;6487;48.626;12.486;2023-04-25T12:39:42;2.30;;;1.47;;
12840;SDS011;6487;48.626;12.486;2023-04-25T12:42:10;1.50;;;1.40;;
12840;SDS011;6487;48.626;12.486;2023-04-25T12:44:39;1.20;;;1.17;;
12840;SDS011;6487;48.626;12.486;2023-04-25T12:47:08;1.67;;;1.20;;
12840;SDS011;6487;48.626;12.486;2023-04-25T12:49:38;1.13;;;1.10;;
12840;SDS011;6487;48.626;12.486;2023-04-25T12:52:06;1.20;;;1.10;;
12840;SDS011;6487;48.626;12.486;2023-04-25T12:54:35;1.40;;;1.30;;
12840;SDS011;6487;48.626;12.486;2023-04-25T12:57:03;1.33;;;1.23;;
12840;SDS011;6487;48.626;12.486;2023-04-25T12:59:31;1.20;;;1.10;;
12840;SDS011;6487;48.626;12.486;2023-04-25T13:02:00;1.23;;;1.13;;
12840;SDS011;6487;48.626;12.486;2023-04-25T13:04:29;1.33;;;1.23;;
12840;SDS011;6487;48.626;12.486;2023-04-25T13:06:59;1.67;;;1.13;;
12840;SDS011;6487;48.626;12.486;2023-04-25T13:09:27;1.27;;;1.00;;
12840;SDS011;6487;48.626;12.486;2023-04-25T13:11:55;1.90;;;1.30;;
12840;SDS011;6487;48.626;12.486;2023-04-25T13:14:25;1.60;;;1.20;;
12840;SDS011;6487;48.626;12.486;2023-04-25T13:16:53;2.10;;;1.00;;
12840;SDS011;6487;48.626;12.486;2023-04-25T13:19:22;2.27;;;1.10;;
12840;SDS011;6487;48.626;12.486;2023-04-25T13:21:50;1.63;;;1.10;;
12840;SDS011;6487;48.626;12.486;2023-04-25T13:24:20;0.93;;;0.93;;
12840;SDS011;6487;48.626;12.486;2023-04-25T13:26:48;1.53;;;1.43;;
12840;SDS011;6487;48.626;12.486;2023-04-25T13:29:17;1.50;;;1.37;;
12840;SDS011;6487;48.626;12.486;2023-04-25T13:31:45;1.33;;;1.10;;
12840;SDS011;6487;48.626;12.486;2023-04-25T13:34:14;1.40;;;1.30;;
12840;SDS011;6487;48.626;12.486;2023-04-25T13:36:42;1.33;;;1.23;;
12840;SDS011;6487;48.626;12.486;2023-04-25T13:39:11;2.07;;;1.40;;
12840;SDS011;6487;48.626;12.486;2023-04-25T13:41:41;1.40;;;1.30;;
12840;SDS011;6487;48.626;12.486;2023-04-25T13:44:09;1.77;;;1.30;;
12840;SDS011;6487;48.626;12.486;2023-04-25T13:46:38;1.90;;;1.50;;
12840;SDS011;6487;48.626;12.486;2023-04-25T13:49:12;1.70;;;1.40;;
12840;SDS011;6487;48.626;12.486;2023-04-25T13:51:41;1.73;;;1.47;;
12840;SDS011;6487;48.626;12.486;2023-04-25T13:54:10;3.57;;;1.40;;
12840;SDS011;6487;48.626;12.486;2023-04-25T13:56:38;1.83;;;1.50;;
12840;SDS011;6487;48.626;12.486;2023-04-25T13:59:10;1.63;;;1.53;;
12840;SDS011;6487;48.626;12.486;2023-04-25T14:01:38;2.13;;;1.93;;
12840;SDS011;6487;48.626;12.486;2023-04-25T14:04:06;1.60;;;1.40;;
12840;SDS011;6487;48.626;12.486;2023-04-25T14:06:35;2.33;;;1.47;;
12840;SDS011;6487;48.626;12.486;2023-04-25T14:09:04;2.80;;;1.57;;
12840;SDS011;6487;48.626;12.486;2023-04-25T14:11:33;2.67;;;1.80;;
12840;SDS011;6487;48.626;12.486;2023-04-25T14:14:01;1.70;;;1.60;;
12840;SDS011;6487;48.626;12.486;2023-04-25T14:16:31;2.07;;;1.87;;
12840;SDS011;6487;48.626;12.486;2023-04-25T14:19:01;1.60;;;1.50;;
12840;SDS011;6487;48.626;12.486;2023-04-25T14:21:29;3.33;;;1.60;;
12840;SDS011;6487;48.626;12.486;2023-04-25T14:23:59;2.23;;;1.80;;
12840;SDS011;6487;48.626;12.486;2023-04-25T14:26:28;2.33;;;1.63;;
12840;SDS011;6487;48.626;12.486;2023-04-25T14:28:56;3.50;;;1.70;;
12840;SDS011;6487;48.626;12.486;2023-04-25T14:31:24;2.00;;;1.83;;
12840;SDS011;6487;48.626;12.486;2023-04-25T14:33:54;2.17;;;1.87;;
12840;SDS011;6487;48.626;12.486;2023-04-25T14:36:25;2.87;;;2.03;;
12840;SDS011;6487;48.626;12.486;2023-04-25T14:38:53;2.67;;;1.93;;
12840;SDS011;6487;48.626;12.486;2023-04-25T14:41:22;5.20;;;2.40;;
12840;SDS011;6487;48.626;12.486;2023-04-25T14:43:51;2.27;;;2.07;;
12840;SDS011;6487;48.626;12.486;2023-04-25T14:46:20;2.23;;;2.03;;
12840;SDS011;6487;48.626;12.486;2023-04-25T14:48:49;3.27;;;2.30;;
12840;SDS011;6487;48.626;12.486;2023-04-25T14:51:19;2.10;;;1.90;;
12840;SDS011;6487;48.626;12.486;2023-04-25T14:53:48;2.00;;;1.80;;
12840;SDS011;6487;48.626;12.486;2023-04-25T14:56:17;1.83;;;1.73;;
12840;SDS011;6487;48.626;12.486;2023-04-25T14:58:46;2.17;;;1.80;;
12840;SDS011;6487;48.626;12.486;2023-04-25T15:01:14;2.73;;;1.90;;
12840;SDS011;6487;48.626;12.486;2023-04-25T15:03:43;2.10;;;2.00;;
12840;SDS011;6487;48.626;12.486;2023-04-25T15:06:12;2.40;;;2.20;;